Time;durP1;ratioP1;P1;durP2;ratioP2;P2;SDS_P1;SDS_P2;PMS_P1;PMS_P2;Temp;Humidity;BMP_temperature;BMP_pressure;BME280_temperature;BME280_humidity;BME280_pressure;Samples;Min_cycle;Max_cycle;Signal;HPM_P1;HPM_P2
2021/07/31 00:02:19;;;;;;;8.93;2.10;;;16.90;79.60;;;;;;5035690;28;20029;-77
2021/07/31 00:04:45;;;;;;;6.63;1.80;;;16.90;79.80;;;;;;5052424;28;20017;-78
2021/07/31 00:07:11;;;;;;;7.57;2.25;;;16.90;80.20;;;;;;5035909;28;20377;-77
2021/07/31 00:09:36;;;;;;;10.23;2.80;;;16.90;80.40;;;;;;5053626;28;20029;-77
2021/07/31 00:12:02;;;;;;;7.97;1.88;;;16.90;80.50;;;;;;5052381;28;20489;-75
2021/07/31 00:14:31;;;;;;;8.05;2.00;;;16.90;80.70;;;;;;5053451;28;20049;-77
2021/07/31 00:16:57;;;;;;;7.90;2.42;;;16.90;81.00;;;;;;5052141;28;20033;-77
2021/07/31 00:19:24;;;;;;;7.50;1.77;;;16.90;81.10;;;;;;5052226;28;20044;-79
2021/07/31 00:21:50;;;;;;;10.63;2.10;;;16.90;81.30;;;;;;5057474;28;20078;-76
2021/07/31 00:24:15;;;;;;;8.20;1.90;;;16.90;81.20;;;;;;5070183;28;20032;-76
2021/07/31 00:26:41;;;;;;;6.40;1.52;;;16.90;81.30;;;;;;5054965;28;20037;-78
2021/07/31 00:29:06;;;;;;;7.82;2.65;;;17.00;81.40;;;;;;5052800;28;20027;-77
2021/07/31 00:31:32;;;;;;;12.45;2.95;;;16.90;81.60;;;;;;5068749;28;20487;-78
2021/07/31 00:33:58;;;;;;;9.05;2.17;;;17.00;81.80;;;;;;5035703;28;20041;-81
2021/07/31 00:36:24;;;;;;;6.63;1.60;;;17.00;81.90;;;;;;5051722;28;20029;-76
2021/07/31 00:38:50;;;;;;;13.00;2.88;;;17.00;82.00;;;;;;5051864;28;20544;-77
2021/07/31 00:41:15;;;;;;;5.20;1.60;;;17.00;82.10;;;;;;5052335;28;20124;-76
2021/07/31 00:43:41;;;;;;;10.10;2.47;;;17.00;82.00;;;;;;5053059;28;20056;-78
2021/07/31 00:46:07;;;;;;;6.82;2.00;;;17.00;82.20;;;;;;5051958;28;20119;-77
2021/07/31 00:48:33;;;;;;;9.43;2.50;;;17.00;82.20;;;;;;5057915;28;20183;-76
2021/07/31 00:50:59;;;;;;;13.23;2.85;;;17.10;82.50;;;;;;5034960;28;20021;-80
2021/07/31 00:53:25;;;;;;;6.68;2.58;;;17.10;82.40;;;;;;5051354;28;20044;-78
2021/07/31 00:55:53;;;;;;;10.02;2.22;;;17.10;82.70;;;;;;5052811;28;20029;-78
2021/07/31 00:58:19;;;;;;;10.52;2.75;;;17.10;83.40;;;;;;5035150;28;20075;-76
2021/07/31 01:00:45;;;;;;;7.75;2.15;;;17.10;83.30;;;;;;5018489;28;20021;-77
2021/07/31 01:03:10;;;;;;;14.90;2.15;;;17.10;83.50;;;;;;5052767;28;20028;-78
2021/07/31 01:05:36;;;;;;;8.80;2.15;;;17.00;83.50;;;;;;5051515;28;20040;-78
2021/07/31 01:08:02;;;;;;;9.57;2.72;;;17.00;83.70;;;;;;5051517;28;20033;-78
2021/07/31 01:10:28;;;;;;;6.25;1.83;;;17.00;83.70;;;;;;5052654;28;20100;-78
2021/07/31 01:12:56;;;;;;;9.27;2.72;;;17.00;83.80;;;;;;5034779;28;20495;-78
2021/07/31 01:15:21;;;;;;;7.15;2.05;;;17.10;83.90;;;;;;5051345;28;20539;-79
2021/07/31 01:17:47;;;;;;;9.55;2.15;;;17.00;83.70;;;;;;5052547;28;20033;-80
2021/07/31 01:20:13;;;;;;;7.05;2.38;;;17.10;83.90;;;;;;5051171;28;20021;-77
2021/07/31 01:22:38;;;;;;;10.43;2.60;;;17.10;83.90;;;;;;5051557;28;20028;-80
2021/07/31 01:25:05;;;;;;;10.52;2.45;;;17.10;84.40;;;;;;5051310;28;20059;-79
2021/07/31 01:27:31;;;;;;;9.82;2.83;;;17.10;84.30;;;;;;5052520;28;20085;-80
2021/07/31 01:29:56;;;;;;;9.68;2.42;;;17.10;84.40;;;;;;5034792;28;20461;-79
2021/07/31 01:32:22;;;;;;;10.02;1.92;;;17.00;84.30;;;;;;5034874;28;20385;-80
2021/07/31 01:34:48;;;;;;;11.73;2.47;;;17.10;84.70;;;;;;5051257;28;20500;-79
2021/07/31 01:37:13;;;;;;;11.55;3.00;;;17.00;84.90;;;;;;5036161;28;20439;-77
2021/07/31 01:39:39;;;;;;;6.95;2.95;;;17.00;84.90;;;;;;5055894;28;20032;-78
2021/07/31 01:42:08;;;;;;;12.95;2.75;;;17.00;85.00;;;;;;5054980;28;20082;-78
2021/07/31 01:44:34;;;;;;;11.20;3.13;;;17.00;85.50;;;;;;5021699;28;20029;-77
2021/07/31 01:46:59;;;;;;;14.40;3.20;;;17.00;85.60;;;;;;5055991;28;20040;-79
2021/07/31 01:49:25;;;;;;;15.93;3.10;;;17.00;86.20;;;;;;5054572;28;20056;-76
2021/07/31 01:51:50;;;;;;;13.95;3.50;;;16.90;86.90;;;;;;5054494;28;20477;-76
2021/07/31 01:54:16;;;;;;;10.88;3.20;;;16.90;86.90;;;;;;5055548;28;20029;-78
2021/07/31 01:56:44;;;;;;;11.18;3.17;;;16.90;87.10;;;;;;5037802;28;20473;-78
2021/07/31 01:59:09;;;;;;;10.48;3.35;;;16.80;87.10;;;;;;5038290;28;20045;-79
2021/07/31 02:01:35;;;;;;;12.23;4.18;;;16.80;87.60;;;;;;5054597;28;20110;-78
2021/07/31 02:04:01;;;;;;;11.90;4.20;;;16.80;88.40;;;;;;5037808;28;20543;-79
2021/07/31 02:06:26;;;;;;;9.18;3.38;;;16.80;89.50;;;;;;5054350;28;20059;-80
2021/07/31 02:08:52;;;;;;;11.65;3.80;;;16.60;90.00;;;;;;5054169;28;20060;-76
2021/07/31 02:11:17;;;;;;;15.10;4.43;;;16.50;90.40;;;;;;5037757;28;20029;-79
2021/07/31 02:13:43;;;;;;;11.63;4.50;;;16.50;90.50;;;;;;5037533;28;20078;-80
2021/07/31 02:16:09;;;;;;;15.73;4.97;;;16.40;90.60;;;;;;5020978;28;20049;-79
2021/07/31 02:18:34;;;;;;;12.48;4.15;;;16.40;90.60;;;;;;5037610;28;20024;-79
2021/07/31 02:21:00;;;;;;;11.75;4.07;;;16.30;90.60;;;;;;5054150;28;20113;-81
2021/07/31 02:23:25;;;;;;;15.15;4.30;;;16.30;90.60;;;;;;5037494;28;20070;-77
2021/07/31 02:25:51;;;;;;;11.98;4.18;;;16.30;90.60;;;;;;5054256;28;20117;-79
2021/07/31 02:28:17;;;;;;;17.73;5.03;;;16.30;90.50;;;;;;5021073;28;20128;-81
2021/07/31 02:30:42;;;;;;;15.80;4.65;;;16.30;90.50;;;;;;5037295;28;20029;-78
2021/07/31 02:33:08;;;;;;;16.77;4.05;;;16.40;90.40;;;;;;5054928;28;20071;-80
2021/07/31 02:35:34;;;;;;;16.98;4.00;;;16.30;90.30;;;;;;5053828;28;20025;-80
2021/07/31 02:38:02;;;;;;;10.52;3.78;;;16.40;90.30;;;;;;5053667;28;20059;-78
2021/07/31 02:40:29;;;;;;;11.25;4.13;;;16.40;90.20;;;;;;5054951;28;20358;-79
2021/07/31 02:42:55;;;;;;;13.68;4.25;;;16.40;90.20;;;;;;5054850;28;20180;-79
2021/07/31 02:45:21;;;;;;;16.23;4.47;;;16.40;90.10;;;;;;5053572;28;20025;-83
2021/07/31 02:47:46;;;;;;;17.90;4.00;;;16.40;90.10;;;;;;5053509;28;20028;-81
2021/07/31 02:50:12;;;;;;;12.70;4.60;;;16.50;90.00;;;;;;5053487;28;20063;-78
2021/07/31 02:52:38;;;;;;;13.50;4.20;;;16.50;90.00;;;;;;5054600;28;20029;-78
2021/07/31 02:55:04;;;;;;;14.48;4.45;;;16.50;89.80;;;;;;5054480;28;20064;-79
2021/07/31 02:57:30;;;;;;;13.65;4.15;;;16.50;89.50;;;;;;5036835;28;20045;-77
2021/07/31 02:59:56;;;;;;;9.07;3.97;;;16.60;89.50;;;;;;5054420;28;20024;-78
2021/07/31 03:02:22;;;;;;;17.15;3.95;;;16.60;89.40;;;;;;5054422;28;20028;-77
2021/07/31 03:04:47;;;;;;;14.48;5.10;;;16.60;89.20;;;;;;5054351;28;20381;-77
2021/07/31 03:07:13;;;;;;;14.88;4.78;;;16.70;89.10;;;;;;5053216;28;20033;-81
2021/07/31 03:09:38;;;;;;;9.98;3.72;;;16.60;89.30;;;;;;5036530;28;20507;-78
2021/07/31 03:12:04;;;;;;;11.90;4.75;;;16.70;89.40;;;;;;5054401;28;20113;-79
2021/07/31 03:14:30;;;;;;;11.52;3.75;;;16.60;89.70;;;;;;5036242;28;20051;-79
2021/07/31 03:16:55;;;;;;;9.43;4.30;;;16.60;90.00;;;;;;5054145;28;20108;-79
2021/07/31 03:19:21;;;;;;;10.70;4.38;;;16.60;90.30;;;;;;5036203;28;20532;-81
2021/07/31 03:21:46;;;;;;;11.57;4.80;;;16.50;90.60;;;;;;5054140;28;20032;-79
2021/07/31 03:24:12;;;;;;;15.10;5.30;;;16.50;90.90;;;;;;5054236;28;20024;-77
2021/07/31 03:26:38;;;;;;;10.98;5.72;;;16.30;91.30;;;;;;5053028;28;20086;-80
2021/07/31 03:29:03;;;;;;;15.07;6.72;;;16.30;91.40;;;;;;5036405;28;20112;-81
2021/07/31 03:31:29;;;;;;;12.02;6.47;;;16.20;91.80;;;;;;5052706;28;20554;-78
2021/07/31 03:33:55;;;;;;;12.52;6.60;;;16.10;92.10;;;;;;5019517;28;20485;-81
2021/07/31 03:36:21;;;;;;;16.10;7.30;;;16.00;92.30;;;;;;5036146;28;20033;-77
2021/07/31 03:38:46;;;;;;;13.00;7.20;;;16.00;92.70;;;;;;5053888;28;20492;-77
2021/07/31 03:41:12;;;;;;;19.05;8.68;;;15.90;93.00;;;;;;5036096;28;20025;-78
2021/07/31 03:43:37;;;;;;;16.73;8.90;;;15.90;93.10;;;;;;5053886;28;20033;-81
2021/07/31 03:46:07;;;;;;;16.15;8.68;;;15.80;93.90;;;;;;5036004;28;20029;-82
2021/07/31 03:48:33;;;;;;;21.42;11.65;;;15.70;94.20;;;;;;5053615;28;20043;-79
2021/07/31 03:50:58;;;;;;;22.67;11.27;;;15.60;94.40;;;;;;5052320;28;20111;-80
2021/07/31 03:53:24;;;;;;;17.45;10.52;;;15.50;94.60;;;;;;5052153;28;20025;-78
2021/07/31 03:55:49;;;;;;;18.42;9.20;;;15.50;94.60;;;;;;5052492;28;20051;-79
2021/07/31 03:58:16;;;;;;;18.90;9.80;;;15.50;94.90;;;;;;5053545;28;20489;-78
2021/07/31 04:00:43;;;;;;;15.25;9.30;;;15.40;95.10;;;;;;5056026;28;20032;-78
2021/07/31 04:03:09;;;;;;;16.00;9.32;;;15.40;95.40;;;;;;5040305;28;20052;-79
2021/07/31 04:05:38;;;;;;;24.15;11.18;;;15.40;95.50;;;;;;5050313;28;20024;-79
2021/07/31 04:08:03;;;;;;;25.63;11.55;;;15.30;95.50;;;;;;5051581;28;20070;-79
2021/07/31 04:10:29;;;;;;;22.48;11.13;;;15.30;95.80;;;;;;5052569;28;20025;-78
2021/07/31 04:12:56;;;;;;;16.70;10.85;;;15.30;96.00;;;;;;5052126;28;20029;-78
2021/07/31 04:15:22;;;;;;;21.17;11.20;;;15.40;95.90;;;;;;5051974;28;20075;-78
2021/07/31 04:17:48;;;;;;;19.02;9.30;;;15.30;96.10;;;;;;5034460;28;20025;-79
2021/07/31 04:20:13;;;;;;;17.60;10.60;;;15.30;96.40;;;;;;5053301;28;20025;-78
2021/07/31 04:22:39;;;;;;;19.35;10.75;;;15.30;96.20;;;;;;5052043;28;20079;-79
2021/07/31 04:25:05;;;;;;;17.00;9.80;;;15.30;96.20;;;;;;5035425;28;20074;-77
2021/07/31 04:27:32;;;;;;;17.60;9.93;;;15.30;96.10;;;;;;5052048;28;20067;-78
2021/07/31 04:29:59;;;;;;;23.80;10.95;;;15.30;96.10;;;;;;5051832;28;20028;-76
2021/07/31 04:32:24;;;;;;;14.88;10.98;;;15.30;96.20;;;;;;5052018;28;20124;-78
2021/07/31 04:34:50;;;;;;;14.70;9.30;;;15.30;96.20;;;;;;5051663;28;20116;-82
2021/07/31 04:37:15;;;;;;;16.55;9.73;;;15.40;96.30;;;;;;5053156;28;20029;-78
2021/07/31 04:39:41;;;;;;;17.13;9.93;;;15.40;96.30;;;;;;5035149;28;20481;-78
2021/07/31 04:42:07;;;;;;;13.27;8.40;;;15.40;96.20;;;;;;5051927;28;20029;-78
2021/07/31 04:44:33;;;;;;;14.10;8.43;;;15.40;96.20;;;;;;5051816;28;20480;-78
2021/07/31 04:46:58;;;;;;;17.10;8.27;;;15.40;96.20;;;;;;5051894;28;20033;-79
2021/07/31 04:49:24;;;;;;;18.85;8.48;;;15.40;96.50;;;;;;5052988;28;20049;-79
2021/07/31 04:51:50;;;;;;;14.73;8.10;;;15.40;96.20;;;;;;5035201;28;20109;-79
2021/07/31 04:54:15;;;;;;;14.63;6.85;;;15.40;96.20;;;;;;5052037;28;20445;-79
2021/07/31 04:56:44;;;;;;;10.90;6.97;;;15.40;96.10;;;;;;5035103;28;20036;-80
2021/07/31 04:59:10;;;;;;;10.88;6.53;;;15.40;96.10;;;;;;5035042;28;20026;-80
2021/07/31 05:01:35;;;;;;;10.20;6.38;;;15.40;96.10;;;;;;5034776;28;20063;-80
2021/07/31 05:04:01;;;;;;;11.18;6.25;;;15.50;96.00;;;;;;5051534;28;20504;-79
2021/07/31 05:06:26;;;;;;;12.48;6.25;;;15.50;96.00;;;;;;5052698;28;20049;-78
2021/07/31 05:08:52;;;;;;;15.13;6.28;;;15.50;95.90;;;;;;5034899;28;20053;-78
2021/07/31 05:11:21;;;;;;;12.05;6.38;;;15.50;95.90;;;;;;5035489;28;20552;-79
2021/07/31 05:13:50;;;;;;;11.45;6.03;;;15.50;95.90;;;;;;5039034;28;20032;-80
2021/07/31 05:16:17;;;;;;;10.88;5.20;;;15.50;96.20;;;;;;5054951;28;20048;-80
2021/07/31 05:18:43;;;;;;;12.10;5.75;;;15.50;95.80;;;;;;5056370;28;20049;-78
2021/07/31 05:21:09;;;;;;;9.73;5.03;;;15.50;95.80;;;;;;5056336;28;20021;-78
2021/07/31 05:23:39;;;;;;;11.40;4.65;;;15.60;96.00;;;;;;5055092;28;20033;-79
2021/07/31 05:26:09;;;;;;;12.60;5.75;;;15.60;95.70;;;;;;5055218;28;20477;-79
2021/07/31 05:28:36;;;;;;;9.73;4.53;;;15.70;95.70;;;;;;5055202;28;20029;-80
2021/07/31 05:31:01;;;;;;;6.03;3.08;;;15.70;95.70;;;;;;5038465;28;20060;-79
2021/07/31 05:33:27;;;;;;;8.07;3.28;;;15.70;95.60;;;;;;5054951;28;20075;-79
2021/07/31 05:35:53;;;;;;;7.28;3.28;;;15.70;95.50;;;;;;5055205;28;20070;-79
2021/07/31 05:38:18;;;;;;;6.35;4.30;;;15.70;95.40;;;;;;5038312;28;20075;-78
2021/07/31 05:40:44;;;;;;;7.22;4.20;;;15.70;95.40;;;;;;5038224;28;20021;-80
2021/07/31 05:43:09;;;;;;;10.95;5.00;;;15.70;95.40;;;;;;5054863;28;20065;-77
2021/07/31 05:45:35;;;;;;;10.65;4.97;;;15.70;95.40;;;;;;5054669;28;20032;-79
2021/07/31 05:48:01;;;;;;;8.88;5.05;;;15.70;95.30;;;;;;5054588;28;20079;-80
2021/07/31 05:50:26;;;;;;;9.63;5.55;;;15.80;95.40;;;;;;5038218;28;20029;-78
2021/07/31 05:52:52;;;;;;;12.00;7.10;;;15.80;95.40;;;;;;5037823;28;20492;-79
2021/07/31 05:55:18;;;;;;;10.00;6.47;;;15.80;95.30;;;;;;5055947;28;20040;-80
2021/07/31 05:57:43;;;;;;;10.30;5.68;;;15.80;95.30;;;;;;5054705;28;20029;-77
2021/07/31 06:00:10;;;;;;;15.25;6.28;;;15.80;95.70;;;;;;5054475;28;20078;-81
2021/07/31 06:02:35;;;;;;;11.45;7.05;;;15.80;95.40;;;;;;5054358;28;20067;-80
2021/07/31 06:05:01;;;;;;;11.85;6.25;;;15.80;95.40;;;;;;5054561;28;20061;-80
2021/07/31 06:07:26;;;;;;;11.57;6.18;;;15.80;95.40;;;;;;5054473;28;20484;-80
2021/07/31 06:09:53;;;;;;;10.93;5.50;;;15.90;95.40;;;;;;5055562;28;20025;-80
2021/07/31 06:12:19;;;;;;;10.05;5.15;;;15.90;95.40;;;;;;5054116;28;20028;-77
2021/07/31 06:14:45;;;;;;;13.45;5.40;;;16.00;95.40;;;;;;5053920;28;20054;-79
2021/07/31 06:17:11;;;;;;;14.90;5.65;;;16.00;95.30;;;;;;5055347;28;20025;-78
2021/07/31 06:19:36;;;;;;;9.77;4.82;;;16.00;95.20;;;;;;5054204;28;20182;-78
2021/07/31 06:22:03;;;;;;;11.13;5.05;;;16.00;95.20;;;;;;5053601;28;20057;-80
2021/07/31 06:24:29;;;;;;;11.27;5.82;;;16.10;95.20;;;;;;5054843;28;20057;-78
2021/07/31 06:26:55;;;;;;;13.98;5.18;;;16.20;95.20;;;;;;5055202;28;20037;-82
2021/07/31 06:29:21;;;;;;;8.73;4.30;;;16.20;94.90;;;;;;5054969;28;20029;-78
2021/07/31 06:31:47;;;;;;;6.82;4.25;;;16.30;94.80;;;;;;5053850;28;20021;-77
2021/07/31 06:34:12;;;;;;;10.90;4.70;;;16.30;94.80;;;;;;5053829;28;20491;-77
2021/07/31 06:36:39;;;;;;;12.15;4.72;;;16.30;94.80;;;;;;5055070;28;20115;-85
2021/07/31 06:39:05;;;;;;;12.77;5.68;;;16.30;94.70;;;;;;5053533;28;20017;-77
2021/07/31 06:41:31;;;;;;;11.18;4.65;;;16.30;94.60;;;;;;5037083;28;20036;-79
2021/07/31 06:43:57;;;;;;;10.00;4.55;;;16.30;94.60;;;;;;5053717;28;20044;-80
2021/07/31 06:46:24;;;;;;;9.90;5.10;;;16.30;94.50;;;;;;5053686;28;20110;-78
2021/07/31 06:48:52;;;;;;;9.88;4.45;;;16.40;94.50;;;;;;5054822;28;20028;-78
2021/07/31 06:51:19;;;;;;;9.32;4.20;;;16.40;94.40;;;;;;5053457;28;20162;-78
2021/07/31 06:53:45;;;;;;;11.55;4.80;;;16.40;94.40;;;;;;5053631;28;20029;-77
2021/07/31 06:56:10;;;;;;;9.98;4.35;;;16.50;94.30;;;;;;5054792;28;20089;-78
2021/07/31 06:58:36;;;;;;;10.00;3.95;;;16.50;94.10;;;;;;5053470;28;20108;-78
2021/07/31 07:01:02;;;;;;;10.13;3.72;;;16.50;94.10;;;;;;5036631;28;20432;-80
2021/07/31 07:03:27;;;;;;;10.32;4.70;;;16.60;94.10;;;;;;5053178;28;20029;-77
2021/07/31 07:05:53;;;;;;;8.18;4.20;;;16.60;93.90;;;;;;5053164;28;20025;-78
2021/07/31 07:08:18;;;;;;;7.82;4.22;;;16.50;93.90;;;;;;5053144;28;20063;-80
2021/07/31 07:10:44;;;;;;;15.90;6.35;;;16.50;93.90;;;;;;5053132;28;20033;-83
2021/07/31 07:13:10;;;;;;;9.25;4.90;;;16.60;93.90;;;;;;5053152;28;20028;-80
2021/07/31 07:15:36;;;;;;;9.63;4.80;;;16.50;94.00;;;;;;5054184;28;20045;-79
2021/07/31 07:18:01;;;;;;;8.02;5.10;;;16.50;94.10;;;;;;5052916;28;20502;-78
2021/07/31 07:20:28;;;;;;;8.23;5.10;;;16.50;94.10;;;;;;5054255;28;20104;-79
2021/07/31 07:22:53;;;;;;;10.02;5.32;;;16.50;94.20;;;;;;5054106;28;20044;-79
2021/07/31 07:25:19;;;;;;;10.07;5.05;;;16.40;94.10;;;;;;5053969;28;20029;-80
2021/07/31 07:27:45;;;;;;;9.70;5.28;;;16.40;94.10;;;;;;5053935;28;20032;-80
2021/07/31 07:30:11;;;;;;;12.15;5.50;;;16.40;94.20;;;;;;5036076;28;20029;-80
2021/07/31 07:32:38;;;;;;;10.25;4.88;;;16.40;94.30;;;;;;5053895;28;20103;-78
2021/07/31 07:35:05;;;;;;;8.55;4.63;;;16.40;94.40;;;;;;5053088;28;20060;-76
2021/07/31 07:37:31;;;;;;;8.30;4.88;;;16.40;94.40;;;;;;5054025;28;20075;-80
2021/07/31 07:39:58;;;;;;;9.27;4.47;;;16.40;94.40;;;;;;5053601;28;20408;-78
2021/07/31 07:42:23;;;;;;;12.02;4.60;;;16.40;94.60;;;;;;5036153;28;20025;-78
2021/07/31 07:44:49;;;;;;;9.60;5.30;;;16.40;94.40;;;;;;5053740;28;20029;-80
2021/07/31 07:47:15;;;;;;;10.13;5.90;;;16.40;94.40;;;;;;5052515;28;20041;-78
2021/07/31 07:49:40;;;;;;;10.25;6.47;;;16.50;94.40;;;;;;5035977;28;20477;-79
2021/07/31 07:52:06;;;;;;;10.93;6.38;;;16.50;94.40;;;;;;5053649;28;20061;-78
2021/07/31 07:54:32;;;;;;;9.32;6.28;;;16.60;94.40;;;;;;5035668;28;20037;-79
2021/07/31 07:56:57;;;;;;;7.57;5.85;;;16.60;94.40;;;;;;5052308;28;20369;-80
2021/07/31 07:59:23;;;;;;;9.55;5.90;;;16.70;94.40;;;;;;5053473;28;20028;-80
2021/07/31 08:01:49;;;;;;;11.48;5.78;;;16.80;94.40;;;;;;5052257;28;20064;-79
2021/07/31 08:04:15;;;;;;;8.48;5.88;;;16.90;94.30;;;;;;5052018;28;20025;-79
2021/07/31 08:06:41;;;;;;;10.60;6.75;;;17.00;94.20;;;;;;5053273;28;20033;-80
2021/07/31 08:09:07;;;;;;;12.73;7.38;;;16.90;93.90;;;;;;5052031;28;20037;-80
2021/07/31 08:11:33;;;;;;;11.70;7.10;;;16.90;93.70;;;;;;5052263;28;20040;-78
2021/07/31 08:13:59;;;;;;;12.18;7.55;;;16.90;93.80;;;;;;5053284;28;20103;-78
2021/07/31 08:16:25;;;;;;;9.77;7.95;;;16.80;94.00;;;;;;5035297;28;20067;-80
2021/07/31 08:18:51;;;;;;;12.05;7.43;;;16.70;94.10;;;;;;5051953;28;20033;-79
2021/07/31 08:21:17;;;;;;;11.73;7.95;;;16.70;94.20;;;;;;5051937;28;20055;-81
2021/07/31 08:23:43;;;;;;;13.73;8.15;;;16.70;94.50;;;;;;5053132;28;20061;-79
2021/07/31 08:26:12;;;;;;;10.70;8.23;;;16.80;94.60;;;;;;5053208;28;20060;-78
2021/07/31 08:28:40;;;;;;;11.15;7.57;;;16.90;94.70;;;;;;5051998;28;20033;-80
2021/07/31 08:31:08;;;;;;;9.40;6.82;;;17.10;94.70;;;;;;5051777;28;20433;-77
2021/07/31 08:33:34;;;;;;;10.13;6.75;;;17.30;94.60;;;;;;5052889;28;20051;-78
2021/07/31 08:36:00;;;;;;;10.82;6.55;;;17.40;94.20;;;;;;5051576;28;20059;-77
2021/07/31 08:38:26;;;;;;;10.18;6.78;;;17.50;94.00;;;;;;5053030;28;20086;-78
2021/07/31 08:40:52;;;;;;;12.45;6.22;;;17.60;93.70;;;;;;5052983;28;20431;-78
2021/07/31 08:43:18;;;;;;;9.38;5.63;;;17.70;93.60;;;;;;5053097;28;20566;-81
2021/07/31 08:45:45;;;;;;;11.45;6.05;;;17.70;93.10;;;;;;5052495;28;20385;-80
2021/07/31 08:48:11;;;;;;;12.88;7.30;;;17.70;92.80;;;;;;5057106;28;20465;-79
2021/07/31 08:50:38;;;;;;;11.55;6.32;;;17.70;92.50;;;;;;5056875;28;20032;-78
2021/07/31 08:53:04;;;;;;;10.60;6.28;;;17.70;92.40;;;;;;5056631;28;20524;-82
2021/07/31 08:55:30;;;;;;;9.95;5.68;;;17.70;92.30;;;;;;5056851;28;20021;-78
2021/07/31 08:57:56;;;;;;;7.80;5.18;;;17.80;92.10;;;;;;5055622;28;20370;-82
2021/07/31 09:00:21;;;;;;;8.65;4.72;;;17.80;92.20;;;;;;5038975;28;20108;-79
2021/07/31 09:02:48;;;;;;;11.95;5.65;;;17.80;92.00;;;;;;5055517;28;20029;-79
2021/07/31 09:05:29;;;;;;;11.52;5.32;;;17.80;92.00;;;;;;5038820;28;20033;-78
2021/07/31 09:08:03;;;;;;;7.72;4.68;;;17.80;91.80;;;;;;5056607;28;20029;-81
2021/07/31 09:10:30;;;;;;;10.25;4.82;;;17.70;92.00;;;;;;5056618;28;20044;-79
2021/07/31 09:12:58;;;;;;;8.48;4.75;;;17.60;92.20;;;;;;5055391;28;20454;-81
2021/07/31 09:15:42;;;;;;;8.98;4.97;;;17.60;92.30;;;;;;5056295;28;20504;-82
2021/07/31 09:18:31;;;;;;;9.15;4.72;;;17.50;92.30;;;;;;5056385;28;20029;-81
2021/07/31 09:21:03;;;;;;;11.32;4.82;;;17.50;92.40;;;;;;5056490;28;20023;-81
2021/07/31 09:23:50;;;;;;;8.73;4.82;;;17.50;92.60;;;;;;5056422;28;20388;-79
2021/07/31 09:26:17;;;;;;;11.23;5.20;;;17.40;92.80;;;;;;5056383;28;20380;-80
2021/07/31 09:28:44;;;;;;;9.15;4.78;;;17.40;92.90;;;;;;5055119;28;20031;-82
2021/07/31 09:31:17;;;;;;;7.93;4.30;;;17.30;93.00;;;;;;5055182;28;20036;-83
2021/07/31 09:33:45;;;;;;;12.98;6.10;;;17.20;93.40;;;;;;5056220;28;20087;-80
2021/07/31 09:36:11;;;;;;;11.93;6.50;;;17.10;94.00;;;;;;5055195;28;20423;-79
2021/07/31 09:38:38;;;;;;;12.32;6.68;;;16.90;94.50;;;;;;5056052;28;20090;-76
2021/07/31 09:41:37;;;;;;;12.88;7.93;;;16.70;95.10;;;;;;5055966;28;20087;-82
2021/07/31 09:44:14;;;;;;;15.40;8.88;;;16.50;95.70;;;;;;5055635;28;20041;-80
2021/07/31 09:46:51;;;;;;;11.50;7.60;;;16.40;96.10;;;;;;5054739;28;20021;-80
2021/07/31 09:49:19;;;;;;;13.93;9.05;;;16.30;96.60;;;;;;5054698;28;20049;-78
2021/07/31 09:51:45;;;;;;;11.60;8.15;;;16.40;97.00;;;;;;5054579;28;20064;-78
2021/07/31 09:54:16;;;;;;;12.15;8.30;;;16.40;97.20;;;;;;5054355;28;20094;-80
2021/07/31 09:56:43;;;;;;;15.63;7.90;;;16.40;97.20;;;;;;5054476;28;20028;-80
2021/07/31 09:59:10;;;;;;;15.70;8.98;;;16.50;97.50;;;;;;5054970;28;20052;-79
2021/07/31 10:01:40;;;;;;;12.35;8.23;;;16.50;97.50;;;;;;5054303;28;20122;-80
2021/07/31 10:04:06;;;;;;;13.82;9.02;;;16.50;97.50;;;;;;5055613;28;20040;-77
2021/07/31 10:06:32;;;;;;;13.45;9.30;;;16.50;97.50;;;;;;5054467;28;20112;-78
2021/07/31 10:09:01;;;;;;;11.95;8.48;;;16.50;97.60;;;;;;5054281;28;20025;-78
2021/07/31 10:11:27;;;;;;;13.75;9.02;;;16.60;97.90;;;;;;5055283;28;20041;-78
2021/07/31 10:13:55;;;;;;;13.50;8.75;;;16.70;98.10;;;;;;5055291;28;20536;-80
2021/07/31 10:16:21;;;;;;;12.00;8.43;;;16.90;98.10;;;;;;5037504;28;20138;-77
2021/07/31 10:19:01;;;;;;;11.32;7.75;;;17.00;97.90;;;;;;5055244;28;20076;-79
2021/07/31 10:21:28;;;;;;;14.07;7.70;;;17.10;97.80;;;;;;5054064;28;20070;-78
2021/07/31 10:23:58;;;;;;;14.93;6.93;;;17.20;97.70;;;;;;5054114;28;20033;-78
2021/07/31 10:26:23;;;;;;;10.93;7.00;;;17.20;97.50;;;;;;5055202;28;20040;-82
2021/07/31 10:28:49;;;;;;;12.43;7.43;;;17.30;97.20;;;;;;5055211;28;20062;-82
2021/07/31 10:31:30;;;;;;;11.50;6.78;;;17.30;96.90;;;;;;5053908;28;20045;-80
2021/07/31 10:33:56;;;;;;;12.55;7.18;;;17.30;96.60;;;;;;5055291;28;20033;-79
2021/07/31 10:36:35;;;;;;;11.35;7.50;;;17.20;96.50;;;;;;5055022;28;20530;-80
2021/07/31 10:39:39;;;;;;;11.25;6.55;;;17.20;96.70;;;;;;5053682;28;20039;-79
2021/07/31 10:42:05;;;;;;;11.43;7.47;;;17.20;96.50;;;;;;5053732;28;20025;-80
2021/07/31 10:44:30;;;;;;;12.02;7.70;;;17.20;96.60;;;;;;5054901;28;20112;-79
2021/07/31 10:47:21;;;;;;;12.50;7.80;;;17.10;96.60;;;;;;5053639;28;20043;-78
2021/07/31 10:49:47;;;;;;;12.35;7.97;;;17.00;96.80;;;;;;5053508;28;20031;-80
2021/07/31 10:52:51;;;;;;;12.02;8.30;;;16.90;96.80;;;;;;5053497;28;20537;-82
2021/07/31 10:55:21;;;;;;;9.93;7.47;;;16.80;97.30;;;;;;5054691;28;20028;-81
2021/07/31 10:57:53;;;;;;;11.55;7.40;;;16.90;97.40;;;;;;5053307;28;20025;-81
2021/07/31 11:00:30;;;;;;;10.48;6.60;;;16.90;97.40;;;;;;5054613;28;20036;-83
2021/07/31 11:03:03;;;;;;;11.93;5.63;;;16.80;97.30;;;;;;5053263;28;20083;-77
2021/07/31 11:05:54;;;;;;;7.18;4.38;;;16.80;97.30;;;;;;5054388;28;20025;-85
2021/07/31 11:08:28;;;;;;;8.45;3.92;;;16.70;97.30;;;;;;5054293;28;20075;-83
2021/07/31 11:11:20;;;;;;;6.40;3.30;;;16.50;97.30;;;;;;5054216;28;20492;-82
2021/07/31 11:13:45;;;;;;;10.55;3.22;;;16.40;97.60;;;;;;5053852;28;20033;-77
2021/07/31 11:16:15;;;;;;;6.90;2.72;;;16.30;97.80;;;;;;5054067;28;20049;-76
2021/07/31 11:18:42;;;;;;;4.47;2.63;;;16.20;98.00;;;;;;5054668;28;20052;-78
2021/07/31 11:21:24;;;;;;;8.38;3.25;;;16.20;98.10;;;;;;5036460;28;20035;-77
2021/07/31 11:24:02;;;;;;;8.15;3.30;;;16.10;98.20;;;;;;5054110;28;20031;-75
2021/07/31 11:26:36;;;;;;;8.07;3.55;;;16.10;98.30;;;;;;5054043;28;20393;-78
2021/07/31 11:29:07;;;;;;;10.80;4.32;;;16.00;98.50;;;;;;5054030;28;20112;-76
2021/07/31 11:31:33;;;;;;;8.20;5.00;;;16.00;98.50;;;;;;5052668;28;20420;-77
2021/07/31 11:34:08;;;;;;;9.77;4.88;;;16.00;98.60;;;;;;5053883;28;20031;-77
2021/07/31 11:36:38;;;;;;;9.98;6.10;;;15.90;98.60;;;;;;5052503;28;20044;-77
2021/07/31 11:39:06;;;;;;;11.45;6.30;;;15.90;98.80;;;;;;5053627;28;20057;-78
2021/07/31 11:41:41;;;;;;;14.82;8.40;;;16.00;98.90;;;;;;5035775;28;20373;-78
2021/07/31 11:44:07;;;;;;;12.10;7.25;;;16.20;99.40;;;;;;5053772;28;20032;-79
2021/07/31 11:46:34;;;;;;;13.20;7.60;;;16.40;99.80;;;;;;5053698;28;20038;-82
2021/07/31 11:49:09;;;;;;;17.90;8.07;;;16.50;99.50;;;;;;5053607;28;20388;-77
2021/07/31 11:51:44;;;;;;;13.93;7.28;;;16.60;99.40;;;;;;5053602;28;20029;-79
2021/07/31 11:54:11;;;;;;;13.05;8.85;;;16.60;99.30;;;;;;5052216;28;20029;-79
2021/07/31 11:56:38;;;;;;;14.18;8.30;;;16.60;99.30;;;;;;5052320;28;20037;-77
2021/07/31 11:59:05;;;;;;;15.25;9.45;;;16.70;99.40;;;;;;5053469;28;20025;-77
2021/07/31 12:01:32;;;;;;;18.30;10.00;;;16.80;99.50;;;;;;5053545;28;20074;-77
2021/07/31 12:03:58;;;;;;;14.45;10.02;;;17.00;99.70;;;;;;5053046;28;20033;-79
2021/07/31 12:06:35;;;;;;;13.52;9.95;;;17.30;99.90;;;;;;5034496;28;20128;-77
2021/07/31 12:09:22;;;;;;;8.98;6.28;;;18.10;99.90;;;;;;5052718;28;20017;-79
2021/07/31 12:11:50;;;;;;;9.57;4.65;;;18.80;99.90;;;;;;5053100;28;20170;-76
2021/07/31 12:14:39;;;;;;;6.72;4.07;;;19.20;99.90;;;;;;5053020;28;20138;-78
2021/07/31 12:17:18;;;;;;;7.53;3.92;;;19.30;99.90;;;;;;5051161;28;20037;-79
2021/07/31 12:19:55;;;;;;;8.80;4.80;;;19.20;99.70;;;;;;5053290;28;20028;-78
2021/07/31 12:22:32;;;;;;;7.00;4.53;;;19.00;99.00;;;;;;5051829;28;20473;-78
2021/07/31 12:25:09;;;;;;;7.50;4.20;;;19.00;99.10;;;;;;5051759;28;20029;-76
2021/07/31 12:28:13;;;;;;;8.98;4.53;;;19.40;99.90;;;;;;5053104;28;20445;-78
2021/07/31 12:30:43;;;;;;;9.55;3.97;;;20.00;99.50;;;;;;5053100;28;20086;-79
2021/07/31 12:33:09;;;;;;;6.15;3.58;;;20.40;98.20;;;;;;5052980;28;20032;-78
2021/07/31 12:35:38;;;;;;;6.35;3.17;;;20.50;96.70;;;;;;5052948;28;20029;-76
2021/07/31 12:38:25;;;;;;;7.88;3.95;;;20.40;94.40;;;;;;5051775;28;20112;-76
2021/07/31 12:40:56;;;;;;;8.18;3.88;;;20.10;93.30;;;;;;5052815;28;20021;-76
2021/07/31 12:43:24;;;;;;;12.13;5.05;;;19.80;92.40;;;;;;5053046;28;20051;-75
2021/07/31 12:45:54;;;;;;;7.85;3.13;;;19.40;93.10;;;;;;5053004;28;20029;-74